Mc Gill, Nevada
Current Conditions -  °F | °C
As of 8:53 PM on Wednesday 26 Nov 2014 (Local Time) from KELY Reporting Station
Clear Clear  
Wind Chill: 19°   Ceiling: Unl
Heat Index: 29°   Visibility: 10mi
Dew Point: 13°   Wind: 13mph
Humidity: 51%   Direction: 170°S
Pressure: 30.46"   Gusts: NA
Location:  39.4053°N, 114.775°W
Report Text: KELY 270453Z AUTO 17011KT 10SM CLR M02/M11 A3046 RMK AO2 SLP315 T10171106
Loading
Personal Weather Stations






























Interactive Weather Map New forecast layout! Learn more

10-Day Weather Forecast

Advertisements
Track Severe Weather on mobile